Time;durP1;ratioP1;P1;durP2;ratioP2;P2;SDS_P1;SDS_P2;PMS_P1;PMS_P2;Temp;Humidity;BMP_temperature;BMP_pressure;BME280_temperature;BME280_humidity;BME280_pressure;Samples;Min_cycle;Max_cycle;Signal;HPM_P1;HPM_P2
2023/10/13 00:04:37;;;;;;;1.55;1.45;;;;;;;15.11;100.00;100867.56;4973705;28;20098;-75
2023/10/13 00:07:04;;;;;;;1.25;1.15;;;;;;;14.45;100.00;100752.00;4973501;28;20043;-74
2023/10/13 00:09:35;;;;;;;0.40;0.40;;;;;;;14.60;100.00;100774.75;4973848;28;20042;-75
2023/10/13 00:12:03;;;;;;;0.90;0.75;;;;;;;14.82;100.00;100800.06;4973566;28;20042;-75
2023/10/13 00:14:34;;;;;;;4.38;1.33;;;;;;;15.08;100.00;100833.25;4963427;28;20039;-75
2023/10/13 00:17:05;;;;;;;1.88;1.73;;;;;;;14.98;100.00;100853.59;4998717;28;20031;-75
2023/10/13 00:22:52;;;;;;;0.63;0.40;;;;;;;14.73;100.00;100822.16;4974483;28;20114;-76
2023/10/13 00:25:26;;;;;;;1.58;1.23;;;;;;;14.80;100.00;100841.47;4970191;28;20125;-75
2023/10/13 00:27:52;;;;;;;2.50;2.30;;;;;;;14.74;100.00;100841.50;4962011;28;20091;-76
2023/10/13 00:30:33;;;;;;;1.10;1.05;;;;;;;14.70;100.00;100832.75;4971375;28;20031;-77
2023/10/13 00:32:59;;;;;;;1.30;1.20;;;;;;;14.97;100.00;100857.13;4971608;28;20051;-78
2023/10/13 00:35:29;;;;;;;1.13;0.98;;;;;;;14.25;100.00;100765.38;4969712;28;20039;-77
2023/10/13 00:41:57;;;;;;;2.63;2.33;;;;;;;14.87;100.00;100843.16;4970162;28;20054;-77
2023/10/13 00:44:37;;;;;;;2.53;2.33;;;;;;;14.74;100.00;100823.03;4968678;28;20549;-75
2023/10/13 00:47:07;;;;;;;3.13;0.80;;;;;;;14.69;100.00;100825.72;4954771;29;20113;-76
2023/10/13 00:53:47;;;;;;;1.42;1.33;;;;;;;14.43;100.00;100840.91;4970751;28;20121;-76
2023/10/13 00:56:21;;;;;;;1.67;1.13;;;;;;;14.61;100.00;100845.16;4952243;29;20051;-76
2023/10/13 00:58:47;;;;;;;2.25;2.05;;;;;;;14.15;100.00;100719.75;4974535;28;20050;-78
2023/10/13 01:01:18;;;;;;;0.70;0.65;;;;;;;14.80;100.00;100828.25;4974318;28;20074;-76
2023/10/13 01:03:48;;;;;;;2.83;2.35;;;;;;;14.15;100.00;100733.81;4971245;28;20050;-76
2023/10/13 01:06:17;;;;;;;5.63;2.05;;;;;;;14.64;100.00;100831.94;4970367;28;20134;-77
2023/10/13 01:09:14;;;;;;;1.60;1.50;;;;;;;14.64;100.00;100816.09;4972101;28;20049;-77
2023/10/13 01:12:34;;;;;;;0.75;0.68;;;;;;;14.32;100.00;100828.66;4968310;28;20085;-77
2023/10/13 01:15:21;;;;;;;2.38;1.98;;;;;;;13.60;100.00;100712.28;4960944;28;20041;-77
2023/10/13 01:17:48;;;;;;;1.40;1.27;;;;;;;14.49;100.00;100831.19;4978447;28;20051;-77
2023/10/13 01:24:31;;;;;;;1.88;1.50;;;;;;;14.34;100.00;100834.81;4971536;28;20478;-77
2023/10/13 01:26:58;;;;;;;1.65;1.45;;;;;;;14.12;100.00;100831.47;4967621;28;20055;-76
2023/10/13 01:29:28;;;;;;;1.23;1.13;;;;;;;13.84;100.00;100806.19;4972621;28;20026;-76
2023/10/13 01:31:54;;;;;;;1.92;1.52;;;;;;;14.10;100.00;100832.38;4972284;28;20069;-76
2023/10/13 01:34:55;;;;;;;1.83;1.60;;;;;;;14.06;100.00;100828.88;4971776;28;20047;-75
2023/10/13 01:40:43;;;;;;;3.20;1.67;;;;;;;13.54;100.00;100739.59;4958810;28;20186;-76
2023/10/13 01:43:10;;;;;;;1.13;1.02;;;;;;;14.09;100.00;100830.63;4970085;28;20119;-76
2023/10/13 01:45:49;;;;;;;1.85;1.75;;;;;;;13.47;100.00;100722.06;4956490;28;20035;-76
2023/10/13 01:48:26;;;;;;;3.65;1.75;;;;;;;14.01;100.00;100829.81;4961145;28;20038;-76
2023/10/13 01:50:59;;;;;;;2.83;2.15;;;;;;;13.43;100.00;100717.69;4991625;28;20419;-78
2023/10/13 01:53:33;;;;;;;1.55;1.27;;;;;;;13.49;100.00;100736.13;4970139;28;20370;-76
2023/10/13 01:56:10;;;;;;;2.30;2.00;;;;;;;13.38;100.00;100715.09;4970802;28;20023;-76
2023/10/13 01:58:41;;;;;;;2.63;2.40;;;;;;;13.41;100.00;100744.06;4981331;28;20055;-76
2023/10/13 02:01:08;;;;;;;2.42;2.22;;;;;;;13.23;100.00;100734.47;4957722;28;20074;-77
2023/10/13 02:03:36;;;;;;;2.20;1.85;;;;;;;13.69;100.00;100828.25;4972897;28;20447;-76
2023/10/13 02:06:04;;;;;;;3.17;1.95;;;;;;;13.70;100.00;100830.91;4975436;28;20062;-75
2023/10/13 02:08:30;;;;;;;22.20;1.33;;;;;;;13.40;100.00;100770.44;4971565;28;20015;-74
2023/10/13 02:10:58;;;;;;;4.18;2.20;;;;;;;13.28;100.00;100743.25;4973552;28;20046;-76
2023/10/13 02:13:25;;;;;;;1.65;1.45;;;;;;;13.09;100.00;100729.28;4970669;28;20035;-77
2023/10/13 02:16:01;;;;;;;0.70;0.55;;;;;;;13.04;100.00;100731.06;4973946;28;20522;-76
2023/10/13 02:18:27;;;;;;;1.75;1.42;;;;;;;13.14;100.00;100745.06;4971867;28;20042;-77
2023/10/13 02:21:17;;;;;;;1.17;0.82;;;;;;;13.67;100.00;100840.56;4969543;28;20047;-77
2023/10/13 02:23:45;;;;;;;11.00;1.15;;;;;;;13.08;100.00;100745.09;4955496;28;20046;-75
2023/10/13 02:26:30;;;;;;;1.85;1.25;;;;;;;13.29;100.00;100839.00;4964521;28;20030;-77
2023/10/13 02:33:05;;;;;;;0.60;0.60;;;;;;;13.31;100.00;100839.88;4971777;28;20953;-77
2023/10/13 02:36:22;;;;;;;1.45;0.80;;;;;;;13.21;100.00;100843.41;4974024;28;20038;-76
2023/10/13 02:42:16;;;;;;;1.42;1.33;;;;;;;13.41;100.00;100811.72;4973630;28;20126;-76
2023/10/13 02:44:45;;;;;;;1.17;1.07;;;;;;;13.17;100.00;100805.66;4974666;28;20043;-75
2023/10/13 02:47:14;;;;;;;0.95;0.75;;;;;;;12.47;100.00;100709.34;4973817;28;20460;-76
2023/10/13 02:49:43;;;;;;;3.78;3.25;;;;;;;12.63;100.00;100715.44;4956059;28;20058;-76
2023/10/13 02:52:41;;;;;;;1.75;1.65;;;;;;;13.41;100.00;100828.41;4972251;28;20130;-75
2023/10/13 02:58:37;;;;;;;4.10;1.50;;;;;;;12.75;100.00;100718.03;4975390;28;20034;-77
2023/10/13 03:01:17;;;;;;;2.53;2.00;;;;;;;12.77;100.00;100734.69;4974603;28;20375;-75
2023/10/13 03:03:58;;;;;;;2.45;1.17;;;;;;;13.20;100.00;100817.94;4973277;28;20459;-78
2023/10/13 03:09:52;;;;;;;1.55;1.20;;;;;;;13.18;100.00;100835.50;4974658;28;20089;-77
2023/10/13 03:12:18;;;;;;;3.90;3.30;;;;;;;12.45;100.00;100701.47;4973956;28;20077;-77
2023/10/13 03:14:54;;;;;;;3.33;2.13;;;;;;;13.21;100.00;100806.53;4973760;28;20121;-77
2023/10/13 03:17:32;;;;;;;2.88;2.67;;;;;;;13.27;100.00;100795.94;4973598;28;20463;-76
2023/10/13 03:19:59;;;;;;;2.35;2.15;;;;;;;12.79;100.00;100716.25;4974421;28;20523;-76
2023/10/13 03:22:32;;;;;;;5.15;3.17;;;;;;;13.32;100.00;100804.72;4974025;28;20050;-76
2023/10/13 03:28:23;;;;;;;6.32;2.58;;;;;;;12.63;100.00;100718.06;4974469;28;20081;-76
2023/10/13 03:30:52;;;;;;;3.30;2.00;;;;;;;13.05;100.00;100776.72;4974064;28;20034;-76
2023/10/13 03:33:27;;;;;;;4.93;2.75;;;;;;;13.27;100.00;100798.56;4973789;28;20479;-76
2023/10/13 03:36:05;;;;;;;3.25;2.95;;;;;;;12.68;100.00;100697.88;4974203;28;20046;-75
2023/10/13 03:38:30;;;;;;;2.47;2.28;;;;;;;13.28;100.00;100821.47;4973659;28;20034;-75
2023/10/13 03:40:56;;;;;;;1.95;1.70;;;;;;;13.14;100.00;100787.22;4974307;28;20390;-74
2023/10/13 03:46:47;;;;;;;6.93;2.75;;;;;;;12.41;100.00;100678.66;4975108;28;20502;-77
2023/10/13 03:52:36;;;;;;;5.72;2.10;;;;;;;12.82;100.00;100769.78;4974212;28;20093;-77
2023/10/13 03:55:05;;;;;;;2.45;2.03;;;;;;;13.13;100.00;100816.22;4972651;28;20047;-78
2023/10/13 03:57:33;;;;;;;1.75;1.65;;;;;;;12.49;100.00;100698.81;4973585;28;20039;-77
2023/10/13 04:00:05;;;;;;;1.02;0.93;;;;;;;13.20;100.00;100810.03;4973728;28;20043;-76
2023/10/13 04:03:16;;;;;;;3.35;2.97;;;;;;;13.15;100.00;100811.81;4973837;28;20070;-77
2023/10/13 04:17:52;;;;;;;4.60;2.75;;;;;;;12.49;100.00;100681.25;4972970;28;20049;-75
2023/10/13 04:24:09;;;;;;;3.53;2.45;;;;;;;12.61;100.00;100717.19;4973468;28;20534;-75
2023/10/13 04:26:36;;;;;;;1.77;1.42;;;;;;;12.98;100.00;100811.88;4972705;28;20031;-77
2023/10/13 04:32:32;;;;;;;2.47;1.95;;;;;;;13.03;100.00;100829.41;4971589;28;20503;-77
2023/10/13 04:40:58;;;;;;;3.13;2.58;;;;;;;13.07;100.00;100809.22;4946925;28;20040;-77
2023/10/13 04:43:33;;;;;;;3.80;2.97;;;;;;;12.48;100.00;100719.00;4951621;28;20051;-77
2023/10/13 04:46:14;;;;;;;5.70;3.45;;;;;;;12.30;100.00;100740.97;4956125;28;20059;-77
2023/10/13 04:48:40;;;;;;;2.53;1.95;;;;;;;12.98;100.00;100833.81;4957110;28;20043;-77
2023/10/13 04:51:49;;;;;;;3.13;2.85;;;;;;;12.27;100.00;100721.66;4956754;28;20065;-76
2023/10/13 04:54:25;;;;;;;6.43;4.60;;;;;;;13.06;100.00;100845.22;4956913;28;20431;-77
2023/10/13 04:57:23;;;;;;;2.47;1.80;;;;;;;13.14;100.00;100837.28;4960987;28;20473;-76
2023/10/13 05:45:40;;;;;;;7.15;3.47;;;;;;;13.48;100.00;100864.41;4974753;28;20046;-75
2023/10/13 05:49:19;;;;;;;14.95;3.33;;;;;;;13.83;100.00;100921.38;4970604;28;20043;-76
2023/10/13 05:52:19;;;;;;;3.78;3.33;;;;;;;13.87;100.00;100915.19;4967605;28;20101;-76
2023/10/13 06:34:47;;;;;;;2.63;2.42;;;;;;;14.49;100.00;100971.13;4971764;28;20042;-75
2023/10/13 06:37:22;;;;;;;3.60;2.47;;;;;;;13.89;100.00;100849.25;4970443;28;20147;-75
2023/10/13 06:39:56;;;;;;;7.63;4.43;;;;;;;14.14;100.00;100876.31;4973223;28;20113;-75
2023/10/13 06:42:34;;;;;;;;;;;;;;;14.63;100.00;100960.47;4973332;28;20054;-75
2023/10/13 06:45:20;;;;;;;3.05;2.72;;;;;;;14.74;100.00;100952.47;4955024;28;19972;-76
2023/10/13 06:54:32;;;;;;;2.85;2.47;;;;;;;15.15;100.00;100941.50;4961702;28;20502;-76
2023/10/13 06:56:58;;;;;;;2.42;2.22;;;;;;;15.29;100.00;100953.69;4954837;28;20387;-75
2023/10/13 06:59:26;;;;;;;4.72;3.20;;;;;;;15.31;100.00;100966.03;4954982;28;20034;-78
2023/10/13 07:05:39;;;;;;;3.90;2.70;;;;;;;15.57;100.00;100967.50;4973294;28;20097;-76
2023/10/13 07:08:08;;;;;;;5.88;2.60;;;;;;;15.61;100.00;100962.13;4967230;28;20145;-75
2023/10/13 07:11:32;;;;;;;4.13;3.70;;;;;;;15.49;100.00;100961.41;4970699;28;20121;-74
2023/10/13 07:13:22;;;;;;;3.00;1.90;;;;;;;15.52;100.00;100956.09;4966233;28;20398;-76
2023/10/13 07:15:47;;;;;;;3.00;1.75;;;;;;;15.19;100.00;100898.31;4972596;28;20122;-77
2023/10/13 07:18:15;;;;;;;2.17;1.40;;;;;;;15.70;100.00;100960.28;4971861;28;20034;-76
2023/10/13 07:24:19;;;;;;;18.48;3.55;;;;;;;15.77;100.00;100923.19;4961227;28;20077;-75
2023/10/13 07:27:02;;;;;;;4.90;4.18;;;;;;;15.92;100.00;100950.31;4967784;28;20118;-76
2023/10/13 07:29:29;;;;;;;1.10;0.98;;;;;;;15.99;100.00;100954.63;4963028;28;20130;-77
2023/10/13 07:31:55;;;;;;;3.78;3.47;;;;;;;15.66;100.00;100892.44;4969190;28;20037;-77
2023/10/13 07:34:26;;;;;;;2.33;2.05;;;;;;;16.34;100.00;100993.00;4966167;28;20068;-79
2023/10/13 07:37:33;;;;;;;2.17;1.70;;;;;;;16.40;100.00;100983.19;4971627;28;20042;-75
2023/10/13 07:39:59;;;;;;;3.83;1.65;;;;;;;16.33;100.00;100957.69;4965532;28;20047;-77
2023/10/13 07:42:31;;;;;;;2.45;2.25;;;;;;;15.93;100.00;100865.63;4971812;28;20035;-76
2023/10/13 07:44:58;;;;;;;2.10;1.80;;;;;;;16.66;100.00;100977.47;4968084;28;20367;-75
2023/10/13 07:47:26;;;;;;;2.35;2.15;;;;;;;16.65;100.00;100969.56;4966465;28;20855;-76
2023/10/13 07:49:51;;;;;;;2.20;1.55;;;;;;;16.53;100.00;100952.09;4967394;28;20425;-77
2023/10/13 07:55:11;;;;;;;2.30;2.08;;;;;;;16.78;100.00;100979.06;4969511;28;20074;-76
2023/10/13 07:57:53;;;;;;;1.52;1.35;;;;;;;16.89;100.00;100978.91;4967890;28;20042;-77
2023/10/13 08:03:46;;;;;;;3.60;2.00;;;;;;;17.12;100.00;100972.34;4969917;28;20360;-77
2023/10/13 08:08:38;;;;;;;4.32;1.88;;;;;;;17.42;100.00;101006.28;4961009;28;20050;-76
2023/10/13 08:11:11;;;;;;;3.05;2.80;;;;;;;16.75;100.00;100907.56;4972209;28;20085;-75
2023/10/13 08:13:46;;;;;;;1.40;0.88;;;;;;;16.91;100.00;100916.16;4970589;28;20043;-76
2023/10/13 08:16:22;;;;;;;2.35;1.77;;;;;;;16.96;100.00;100897.50;4970530;28;20042;-75
2023/10/13 08:18:52;;;;;;;1.33;1.20;;;;;;;17.65;100.00;100996.97;4968946;28;20051;-76
2023/10/13 08:21:25;;;;;;;0.77;0.47;;;;;;;17.64;100.00;100995.25;4972971;28;20098;-76
2023/10/13 08:24:06;;;;;;;3.45;2.17;;;;;;;17.22;100.00;100905.84;4970719;28;20445;-77
2023/10/13 08:26:57;;;;;;;1.10;0.90;;;;;;;17.75;100.00;100956.09;4969102;28;20455;-76
2023/10/13 08:35:10;;;;;;;3.28;2.80;;;;;;;18.32;100.00;101005.34;4973726;28;20038;-76
2023/10/13 08:43:11;;;;;;;6.80;2.47;;;;;;;18.22;100.00;100950.69;4970211;28;20046;-76
2023/10/13 08:48:31;;;;;;;3.25;2.90;;;;;;;18.80;100.00;101010.47;4952416;28;20472;-76
2023/10/13 08:58:12;;;;;;;2.03;1.58;;;;;;;19.09;100.00;101017.69;4969969;28;20165;-76
2023/10/13 09:01:11;;;;;;;4.07;1.92;;;;;;;19.15;100.00;100998.94;4963657;28;20043;-75
2023/10/13 09:07:25;;;;;;;1.33;1.10;;;;;;;19.48;97.14;101014.91;4969479;28;20158;-76
2023/10/13 09:10:11;;;;;;;2.70;1.42;;;;;;;18.93;97.58;100934.75;4952185;28;20181;-75
2023/10/13 09:12:50;;;;;;;1.00;0.98;;;;;;;19.61;96.78;101026.06;4953781;28;20101;-76
2023/10/13 09:15:59;;;;;;;3.30;3.00;;;;;;;18.94;96.61;100883.31;5002890;28;21175;-76
2023/10/13 09:18:42;;;;;;;4.10;3.33;;;;;;;19.32;93.46;100923.97;4960322;28;20103;-76
2023/10/13 09:24:10;;;;;;;0.75;0.60;;;;;;;20.09;92.85;101025.63;4973316;28;20126;-77
2023/10/13 09:30:20;;;;;;;1.33;1.23;;;;;;;20.32;87.40;101035.63;4972253;28;20451;-77
2023/10/13 09:32:46;;;;;;;1.48;1.33;;;;;;;19.90;86.52;100949.81;4960535;28;20039;-76
2023/10/13 09:35:19;;;;;;;0.93;0.93;;;;;;;20.37;86.78;101003.44;4973567;28;20027;-76
2023/10/13 09:37:48;;;;;;;1.42;1.20;;;;;;;20.53;85.64;101025.19;4958534;28;20062;-74
2023/10/13 09:43:06;;;;;;;1.48;1.38;;;;;;;20.79;80.03;101024.38;4968680;28;20085;-76
2023/10/13 09:55:44;;;;;;;2.30;2.20;;;;;;;20.65;71.56;100846.19;4967637;28;20099;-77
2023/10/13 10:05:11;;;;;;;2.25;1.65;;;;;;;21.76;67.59;100916.88;4969885;28;20049;-78
2023/10/13 10:07:39;;;;;;;1.95;1.80;;;;;;;22.10;66.00;100957.41;4970085;28;20051;-77
2023/10/13 10:10:08;;;;;;;7.25;3.15;;;;;;;22.38;64.75;100964.34;4971407;28;20073;-79
2023/10/13 10:12:52;;;;;;;1.27;1.20;;;;;;;22.65;63.86;100975.75;5006227;28;20042;-80
2023/10/13 10:18:42;;;;;;;0.47;0.47;;;;;;;22.27;60.86;100886.41;4970427;28;20053;-80
2023/10/13 10:28:30;;;;;;;0.80;0.73;;;;;;;23.09;60.43;100980.19;4970685;28;20054;-81
2023/10/13 10:31:19;;;;;;;0.85;0.85;;;;;;;23.07;59.51;100984.75;4962607;28;20069;-82
2023/10/13 10:33:55;;;;;;;2.35;1.45;;;;;;;22.64;60.25;100928.53;4962439;28;20039;-80
2023/10/13 10:36:30;;;;;;;0.60;0.60;;;;;;;22.87;59.86;100969.47;4973572;28;20049;-82
2023/10/13 10:43:03;;;;;;;0.98;0.98;;;;;;;22.92;59.02;100983.53;4967268;28;20034;-82
2023/10/13 10:45:34;;;;;;;0.93;0.82;;;;;;;22.88;61.02;100977.47;4970323;28;20671;-77
2023/10/13 10:48:01;;;;;;;0.98;0.88;;;;;;;22.92;61.06;100976.41;4970091;28;20042;-76
2023/10/13 10:50:36;;;;;;;1.27;1.17;;;;;;;22.44;60.72;100909.75;5003326;28;20057;-77
2023/10/13 10:53:08;;;;;;;0.68;0.68;;;;;;;22.38;61.13;100872.56;4974766;28;20077;-73
2023/10/13 10:55:36;;;;;;;1.38;1.27;;;;;;;22.36;61.93;100888.69;5003753;28;20395;-70
2023/10/13 10:58:28;;;;;;;0.75;0.70;;;;;;;22.73;65.40;100975.41;4971443;28;20043;-73
2023/10/13 11:05:09;;;;;;;1.63;1.52;;;;;;;22.89;64.40;100967.63;4971232;28;20089;-70
2023/10/13 11:08:16;;;;;;;2.25;1.33;;;;;;;23.08;63.48;100979.31;4934939;29;20126;-70
2023/10/13 11:10:48;;;;;;;3.40;2.05;;;;;;;22.81;62.48;100916.25;4953150;28;20047;-71
2023/10/13 11:13:54;;;;;;;7.45;2.03;;;;;;;23.08;61.14;100984.66;4954576;28;20401;-70
2023/10/13 11:16:34;;;;;;;2.10;1.60;;;;;;;23.04;62.07;100964.34;4966565;28;20402;-70
2023/10/13 11:19:11;;;;;;;1.42;0.65;;;;;;;22.45;61.50;100868.69;4954254;28;20047;-71
2023/10/13 11:21:37;;;;;;;0.40;0.40;;;;;;;23.01;61.88;100972.47;4955936;28;20054;-71
2023/10/13 11:24:08;;;;;;;1.08;0.85;;;;;;;22.96;62.55;100953.03;4973379;28;20053;-70
2023/10/13 11:26:49;;;;;;;0.52;0.52;;;;;;;22.90;61.64;100969.38;4964914;28;20482;-70
2023/10/13 11:29:31;;;;;;;1.13;1.02;;;;;;;22.31;62.31;100838.06;4958231;28;20098;-69
2023/10/13 11:32:21;;;;;;;1.65;0.63;;;;;;;23.01;64.58;100960.91;4962006;28;20078;-70
2023/10/13 11:38:13;;;;;;;0.40;0.38;;;;;;;23.20;63.79;100963.66;4962559;28;20046;-70
2023/10/13 11:41:06;;;;;;;4.40;3.30;;;;;;;22.73;61.17;100903.16;4966342;28;20046;-70
2023/10/13 11:58:41;;;;;;;0.22;0.20;;;;;;;23.33;61.67;100957.69;4973152;28;20388;-68
2023/10/13 12:04:30;;;;;;;0.75;0.50;;;;;;;23.21;62.14;100963.59;4955922;28;20073;-69
2023/10/13 12:07:14;;;;;;;1.02;0.93;;;;;;;22.64;60.97;100883.06;4967507;28;20050;-68
2023/10/13 12:12:26;;;;;;;0.60;0.60;;;;;;;22.90;60.55;100946.16;4968484;28;20061;-68
2023/10/13 12:14:52;;;;;;;2.47;2.17;;;;;;;23.02;60.48;100971.56;4969740;28;20042;-77
2023/10/13 12:17:27;;;;;;;1.40;1.33;;;;;;;22.28;72.12;100877.41;4965014;28;20042;-81
2023/10/13 12:20:32;;;;;;;6.03;3.60;;;;;;;22.88;65.07;100958.72;4962837;28;20042;-71
2023/10/13 12:26:32;;;;;;;1.52;1.13;;;;;;;22.43;65.83;100886.59;4950726;28;20077;-76
2023/10/13 12:29:22;;;;;;;4.85;2.85;;;;;;;22.61;76.20;100957.19;4954427;28;20028;-76
2023/10/13 12:32:01;;;;;;;2.10;1.35;;;;;;;22.66;73.05;100961.41;4934975;29;20123;-73
2023/10/13 12:50:12;;;;;;;0.43;0.43;;;;;;;23.04;64.00;100969.69;4934861;29;20103;-78
2023/10/13 12:52:37;;;;;;;5.88;1.15;;;;;;;22.50;62.51;100853.31;4949146;28;20349;-77
2023/10/13 12:55:06;;;;;;;0.30;0.30;;;;;;;22.69;61.91;100902.44;4953420;28;20044;-77
2023/10/13 12:57:34;;;;;;;2.10;1.65;;;;;;;22.21;60.58;100836.69;4946241;28;20051;-79
2023/10/13 12:59:59;;;;;;;9.10;2.08;;;;;;;22.68;61.85;100943.50;4957111;28;20051;-77
2023/10/13 13:02:26;;;;;;;1.88;1.17;;;;;;;22.35;61.01;100862.88;4952066;28;20039;-77
2023/10/13 13:05:11;;;;;;;5.38;2.03;;;;;;;23.05;59.89;100949.13;4948694;28;20054;-77
2023/10/13 13:08:12;;;;;;;2.13;1.52;;;;;;;23.23;59.69;100952.81;4955129;28;20076;-75
2023/10/13 13:10:38;;;;;;;0.63;0.52;;;;;;;23.18;58.71;100923.56;4937536;28;20047;-76
2023/10/13 13:13:04;;;;;;;1.58;1.48;;;;;;;22.79;58.92;100822.66;4946455;28;20380;-76
2023/10/13 13:15:50;;;;;;;1.92;1.23;;;;;;;23.61;58.49;100943.06;4955241;28;20126;-75
2023/10/13 13:18:16;;;;;;;2.88;2.13;;;;;;;23.58;58.15;100946.75;4943158;28;20114;-77
2023/10/13 13:20:53;;;;;;;2.30;2.00;;;;;;;23.22;57.98;100890.34;4944316;28;20415;-77
2023/10/13 13:23:19;;;;;;;1.20;0.60;;;;;;;22.74;57.83;100851.41;4955162;28;20098;-76
2023/10/13 13:25:48;;;;;;;0.90;0.60;;;;;;;23.37;58.36;100935.19;4954100;28;20427;-76
2023/10/13 13:28:15;;;;;;;0.82;0.68;;;;;;;23.15;58.39;100931.72;4953106;28;20066;-78
2023/10/13 13:30:50;;;;;;;0.65;0.55;;;;;;;22.97;58.43;100903.94;4956550;28;20039;-78
2023/10/13 13:33:17;;;;;;;4.68;0.98;;;;;;;22.53;58.95;100847.84;4947523;28;20118;-78
2023/10/13 13:35:43;;;;;;;0.57;0.57;;;;;;;22.60;58.90;100843.13;4952902;28;20051;-78
2023/10/13 13:38:54;;;;;;;1.00;0.93;;;;;;;23.13;58.80;100957.69;4955270;28;20031;-77
2023/10/13 13:41:20;;;;;;;4.32;1.20;;;;;;;23.01;58.91;100947.50;4947183;28;20046;-76
2023/10/13 13:43:54;;;;;;;4.03;2.13;;;;;;;22.39;59.22;100832.41;4952052;28;20036;-79
2023/10/13 13:46:24;;;;;;;0.35;0.35;;;;;;;22.47;60.73;100834.72;4950318;28;20038;-76
2023/10/13 13:49:07;;;;;;;4.22;2.63;;;;;;;22.96;60.49;100921.78;4937072;28;20047;-79
2023/10/13 13:51:33;;;;;;;1.77;0.80;;;;;;;22.28;60.35;100829.31;4952741;28;20380;-78
2023/10/13 13:53:59;;;;;;;1.92;1.52;;;;;;;22.83;59.60;100909.88;4953076;28;20031;-78
2023/10/13 13:56:27;;;;;;;3.97;2.38;;;;;;;22.40;59.83;100838.59;4952894;28;20026;-77
2023/10/13 13:58:53;;;;;;;1.83;1.70;;;;;;;22.55;59.86;100889.66;4954526;28;20030;-78
2023/10/13 14:01:25;;;;;;;3.65;2.30;;;;;;;22.76;59.86;100935.16;4945419;28;20508;-77
2023/10/13 14:04:31;;;;;;;0.40;0.40;;;;;;;22.71;59.45;100948.75;4947129;28;20039;-77
2023/10/13 14:06:57;;;;;;;0.90;0.82;;;;;;;22.64;59.84;100949.03;4963182;28;20105;-76
2023/10/13 14:09:40;;;;;;;0.75;0.75;;;;;;;22.05;59.90;100836.41;4972644;28;20043;-76
2023/10/13 14:18:54;;;;;;;0.38;0.38;;;;;;;22.57;60.80;100945.78;4974925;28;20065;-76
2023/10/13 14:21:24;;;;;;;1.58;1.48;;;;;;;22.00;60.84;100850.91;4962409;28;20130;-76
2023/10/13 14:23:53;;;;;;;0.57;0.43;;;;;;;21.79;60.64;100829.47;4970911;28;20130;-76
2023/10/13 14:26:21;;;;;;;0.93;0.90;;;;;;;22.39;61.08;100934.00;4974377;28;20418;-76
2023/10/13 14:29:14;;;;;;;0.32;0.30;;;;;;;22.30;61.36;100923.69;4969920;28;20656;-76
2023/10/13 14:31:39;;;;;;;3.00;2.22;;;;;;;22.04;61.04;100865.91;4969059;28;20058;-76
2023/10/13 14:34:16;;;;;;;0.13;0.13;;;;;;;21.93;61.05;100852.97;4965696;28;20046;-76
2023/10/13 14:40:37;;;;;;;1.13;1.02;;;;;;;22.43;61.27;100943.66;4971703;28;20042;-77
2023/10/13 14:43:04;;;;;;;2.92;2.05;;;;;;;21.78;61.71;100835.75;4961890;28;20415;-77
2023/10/13 14:45:29;;;;;;;1.38;0.82;;;;;;;22.03;62.10;100883.75;4972966;28;20150;-77
2023/10/13 14:47:55;;;;;;;1.38;1.27;;;;;;;21.86;62.03;100852.34;4974601;28;20467;-81
2023/10/13 14:53:46;;;;;;;9.00;2.08;;;;;;;22.21;72.87;100932.06;4973893;28;20050;-74
2023/10/13 14:56:12;;;;;;;2.00;1.88;;;;;;;21.54;70.84;100834.03;4974093;28;20027;-74
2023/10/13 14:58:45;;;;;;;1.95;1.77;;;;;;;22.12;87.75;100930.59;4974324;28;20035;-77
2023/10/13 15:04:33;;;;;;;3.80;3.50;;;;;;;22.00;100.00;100920.41;4974342;28;20046;-75
2023/10/13 15:07:02;;;;;;;1.02;0.90;;;;;;;21.88;81.70;100905.72;4971921;28;20131;-78
2023/10/13 15:09:29;;;;;;;7.20;2.60;;;;;;;21.97;73.26;100931.22;4973729;28;20077;-81
2023/10/13 15:11:54;;;;;;;1.95;1.83;;;;;;;21.91;70.99;100918.94;4973029;28;20442;-78
2023/10/13 15:17:45;;;;;;;4.30;1.80;;;;;;;21.24;70.58;100835.13;4961251;28;20097;-78
2023/10/13 15:20:15;;;;;;;2.47;1.17;;;;;;;21.23;72.57;100844.03;4964485;28;20043;-77
2023/10/13 15:22:47;;;;;;;3.33;1.52;;;;;;;21.55;74.01;100900.75;4971292;28;20173;-78
2023/10/13 15:28:53;;;;;;;1.95;1.50;;;;;;;21.28;76.97;100907.94;4970874;28;20447;-79
2023/10/13 15:34:00;;;;;;;1.63;1.13;;;;;;;20.91;78.55;100849.69;4962147;28;20053;-79
2023/10/13 15:36:26;;;;;;;5.22;2.10;;;;;;;20.80;79.97;100842.94;4967222;28;20035;-79
2023/10/13 15:38:52;;;;;;;4.05;2.75;;;;;;;21.38;80.81;100948.53;4963727;28;20383;-79
2023/10/13 15:41:22;;;;;;;11.27;3.92;;;;;;;20.32;80.70;100785.06;4974157;28;20027;-79
2023/10/13 15:44:24;;;;;;;2.40;1.95;;;;;;;21.19;83.94;100957.22;4971909;28;20042;-79
2023/10/13 15:53:33;;;;;;;1.90;1.67;;;;;;;20.87;87.64;100942.31;4972687;28;20387;-77
2023/10/13 15:56:06;;;;;;;2.35;2.00;;;;;;;20.37;87.52;100856.84;4970196;28;20031;-78
2023/10/13 15:58:35;;;;;;;1.70;1.60;;;;;;;20.31;89.54;100871.25;4961548;28;20047;-79
2023/10/13 16:01:01;;;;;;;4.75;3.22;;;;;;;20.21;91.81;100884.03;4969018;28;20455;-78
2023/10/13 16:03:27;;;;;;;3.25;2.95;;;;;;;19.37;94.27;100765.00;4970136;28;20037;-78
2023/10/13 16:05:52;;;;;;;0.75;0.75;;;;;;;20.32;96.34;100938.75;4964796;28;20601;-82
2023/10/13 16:08:18;;;;;;;4.43;3.53;;;;;;;20.40;96.94;100939.41;4965376;28;20047;-78
2023/10/13 16:10:44;;;;;;;1.20;1.10;;;;;;;20.30;97.96;100943.25;4963812;28;20109;-81
2023/10/13 16:13:15;;;;;;;5.70;4.13;;;;;;;20.32;100.00;100968.06;4979334;28;20033;-81
2023/10/13 16:15:53;;;;;;;6.68;5.97;;;;;;;20.29;100.00;100971.72;4958386;28;20030;-78
2023/10/13 16:18:21;;;;;;;3.17;2.67;;;;;;;20.18;100.00;100969.41;4960983;28;20293;-78
2023/10/13 16:20:47;;;;;;;13.00;4.13;;;;;;;19.34;100.00;100866.25;4966381;28;20142;-79
2023/10/13 16:23:16;;;;;;;2.60;1.98;;;;;;;19.89;100.00;100991.56;4972953;28;20423;-78
2023/10/13 16:29:03;;;;;;;3.13;2.83;;;;;;;19.74;100.00;100982.25;4977586;28;20181;-79
2023/10/13 16:31:50;;;;;;;2.92;2.72;;;;;;;19.75;100.00;100986.66;4975433;28;20030;-78
2023/10/13 16:34:17;;;;;;;9.65;2.45;;;;;;;19.60;100.00;100966.63;4960991;28;20121;-80
2023/10/13 16:36:47;;;;;;;4.55;3.15;;;;;;;19.63;100.00;100978.97;4972778;28;20030;-79
2023/10/13 16:39:16;;;;;;;2.58;2.33;;;;;;;18.88;100.00;100870.19;4969925;28;20043;-79
2023/10/13 16:41:56;;;;;;;4.03;2.80;;;;;;;18.86;100.00;100892.41;4969710;28;20117;-78
2023/10/13 16:44:27;;;;;;;3.95;3.40;;;;;;;18.88;100.00;100886.13;4971239;28;20113;-76
2023/10/13 16:46:59;;;;;;;2.65;2.40;;;;;;;19.52;100.00;100999.69;4971693;28;20078;-77
2023/10/13 16:49:34;;;;;;;4.18;2.45;;;;;;;18.58;100.00;100863.84;4966582;28;20043;-77
2023/10/13 16:52:00;;;;;;;14.30;5.93;;;;;;;18.70;100.00;100910.50;4966659;28;20114;-77
2023/10/13 16:54:25;;;;;;;2.63;2.42;;;;;;;18.44;100.00;100876.63;4971766;28;20984;-77
2023/10/13 16:56:55;;;;;;;2.88;2.65;;;;;;;19.04;100.00;100970.84;4969656;28;20384;-77
2023/10/13 16:59:20;;;;;;;4.43;3.58;;;;;;;19.05;100.00;100964.59;4958470;28;20126;-77
2023/10/13 17:01:46;;;;;;;2.78;2.45;;;;;;;18.60;100.00;100877.97;4966296;28;20090;-78
2023/10/13 17:04:14;;;;;;;5.45;3.10;;;;;;;18.39;100.00;100847.50;4956092;28;20106;-80
2023/10/13 17:06:39;;;;;;;4.90;4.05;;;;;;;18.67;100.00;100905.28;4968201;28;20050;-78
2023/10/13 17:09:11;;;;;;;1.83;1.58;;;;;;;18.83;100.00;100937.72;4972524;28;20039;-78
2023/10/13 17:11:40;;;;;;;4.95;3.30;;;;;;;19.00;100.00;100974.50;4966373;28;20450;-80
2023/10/13 17:14:06;;;;;;;5.95;3.42;;;;;;;19.00;100.00;100990.47;4966382;28;20051;-75
2023/10/13 17:16:31;;;;;;;3.50;2.97;;;;;;;18.30;100.00;100967.28;4971590;28;20041;-73
2023/10/13 17:18:58;;;;;;;6.53;5.18;;;;;;;17.80;100.00;100868.38;4972681;28;20457;-75
2023/10/13 17:21:38;;;;;;;5.72;4.47;;;;;;;18.41;100.00;100967.06;4973308;28;20403;-76
2023/10/13 17:24:04;;;;;;;3.28;2.97;;;;;;;18.66;100.00;100991.25;4971694;28;20039;-75